Bookmark and Share
Track history (hours):
 

Motion Scan

Last reported at 2014-Apr-02 22:07 UTC. Time now 2014-Apr-23 19:05 UTC.
Position N 36°22' W 028°46'.
Warning: this ship's position is 20 days out of date.

Length 116 m; draft 6.8 m.

Type: Ship. MMSI: 245523000.

NotesDate/timePositionNaut miles runAvg speedWind from/ knotsBaromVisibWave heightAir tempDewpointWater temp
2014-Apr-02 22:07N 36°22' W 028°46'913.7
2014-Apr-02 21:28N 36°29' W 028°40'1313.7
2014-Apr-02 20:33N 36°40' W 028°32'8213.5
2014-Apr-02 14:29N 37°50' W 027°39'1213.4
2014-Apr-02 13:33N 37°60' W 027°29'1313.4
2014-Apr-02 12:33N 38°10' W 027°19'1313.4
2014-Apr-02 11:34N 38°20' W 027°07'1313.1
2014-Apr-02 10:33N 38°30' W 026°56'1313.0
2014-Apr-02 09:33N 38°42' W 026°49'1514.3
2014-Apr-02 08:30N 38°57' W 026°49'  
2014-Mar-29 01:29N 50°11' W 002°04'1616.7
2014-Mar-29 00:33N 50°15' W 001°40'1717.2
2014-Mar-28 23:33N 50°19' W 001°14'1616.1
2014-Mar-28 22:33N 50°22' W 000°49'1414.1
2014-Mar-28 21:34N 50°26' W 000°28'1313.2
2014-Mar-28 20:34N 50°29' W 000°08'1212.3
2014-Mar-28 19:34N 50°33' E 000°11'1211.9
2014-Mar-28 18:33N 50°36' E 000°29'1312.9
2014-Mar-28 17:33N 50°42' E 000°46'1515.0
2014-Mar-28 16:33N 50°51' E 001°05'1515.5
2014-Mar-28 15:33N 51°02' E 001°23'1414.3
2014-Mar-28 14:33N 51°11' E 001°41'1212.5
2014-Mar-28 13:34N 51°22' E 001°50'1111.3
2014-Mar-28 12:33N 51°33' E 001°49'1211.6
2014-Mar-28 11:33N 51°44' E 001°44'1110.7
2014-Mar-28 10:34N 51°53' E 001°34'9 9.2
2014-Mar-28 09:33N 51°55' E 001°19'8 7.5
2014-Mar-28 08:34N 52°01' E 001°11'2 1.7
2014-Mar-28 07:30N 52°02' E 001°10'0 0.0
2014-Mar-28 06:33N 52°02' E 001°10'0 0.0
2014-Mar-28 05:33N 52°02' E 001°10'0 0.0
2014-Mar-28 04:33N 52°02' E 001°10'0 0.0
2014-Mar-28 03:27N 52°02' E 001°10'0 0.0
2014-Mar-28 02:33N 52°02' E 001°10'0 0.0
2014-Mar-28 01:33N 52°02' E 001°10'0 0.0
2014-Mar-28 00:33N 52°02' E 001°10'0 0.0
2014-Mar-27 23:33N 52°02' E 001°10'0 0.0
2014-Mar-27 22:33N 52°02' E 001°10'0 0.0
2014-Mar-27 21:33N 52°02' E 001°10'0 0.0
2014-Mar-27 20:33N 52°02' E 001°10'0 0.0
2014-Mar-27 19:33N 52°02' E 001°10'0 0.0
2014-Mar-27 17:30N 52°02' E 001°10'0 0.0
2014-Mar-27 16:33N 52°02' E 001°10'0 0.0
2014-Mar-27 15:27N 52°02' E 001°10'0 0.0
2014-Mar-27 11:33N 52°02' E 001°10'0 0.0
2014-Mar-27 10:33N 52°02' E 001°10'0 0.0
2014-Mar-27 09:30N 52°02' E 001°10'0 0.1
2014-Mar-27 08:34N 52°03' E 001°10'6 5.8
2014-Mar-27 07:34N 51°59' E 001°17'9 9.2
2014-Mar-27 06:33N 51°56' E 001°31'6 6.3
2014-Mar-27 05:33N 51°51' E 001°37'8 7.6
2014-Mar-27 04:33N 51°48' E 001°48'1110.8
2014-Mar-27 03:33N 51°37' E 001°49'1110.8
2014-Mar-27 02:33N 51°28' E 001°59'1211.5
2014-Mar-27 01:33N 51°21' E 002°14'1211.9
2014-Mar-27 00:33N 51°23' E 002°33'1211.9
2014-Mar-26 23:33N 51°23' E 002°52'3411.4
2014-Mar-26 20:33N 51°22' E 003°46'10 9.7
2014-Mar-26 19:34N 51°26' E 003°60'16 7.9
2014-Mar-26 17:34N 51°17' E 004°20'0 0.4
2014-Mar-26 16:33N 51°16' E 004°20'2 1.9
2014-Mar-26 15:31N 51°15' E 004°22'0 0.0
2014-Mar-26 14:31N 51°15' E 004°22'0 0.0
2014-Mar-26 13:31N 51°15' E 004°22'0 0.0
2014-Mar-26 12:31N 51°15' E 004°22'0 0.0
2014-Mar-26 11:31N 51°15' E 004°22'0 0.0
2014-Mar-26 10:31N 51°15' E 004°22'0 0.0
2014-Mar-26 09:31N 51°15' E 004°22'0 0.0
2014-Mar-26 08:31N 51°15' E 004°22'0 0.0
2014-Mar-26 07:31N 51°15' E 004°22'0 0.0
2014-Mar-26 00:31N 51°15' E 004°22'0 0.0
2014-Mar-25 23:31N 51°15' E 004°22'0 0.0
2014-Mar-25 22:31N 51°15' E 004°22'0 0.0
2014-Mar-25 21:31N 51°15' E 004°22'0 0.0
2014-Mar-25 20:31N 51°15' E 004°22'0 0.0
2014-Mar-25 19:31N 51°15' E 004°22'0 0.0
2014-Mar-25 17:31N 51°15' E 004°22'0 0.0
2014-Mar-25 16:31N 51°15' E 004°22'0 0.0
2014-Mar-25 15:31N 51°15' E 004°22'0 0.0
2014-Mar-25 14:31N 51°15' E 004°22'0 0.0
2014-Mar-25 13:31N 51°15' E 004°22'0 0.0
2014-Mar-25 12:31N 51°15' E 004°22'0 0.0
2014-Mar-25 11:31N 51°15' E 004°22'0 0.0
2014-Mar-25 10:31N 51°15' E 004°22'0 0.0
2014-Mar-25 09:31N 51°15' E 004°22'0 0.0
2014-Mar-25 08:31N 51°15' E 004°22'0 0.0
2014-Mar-25 07:31N 51°15' E 004°22'0 0.0
2014-Mar-25 06:31N 51°15' E 004°22'0 0.0
2014-Mar-25 05:31N 51°15' E 004°22'0 0.0
2014-Mar-25 04:31N 51°15' E 004°22'0 0.0
2014-Mar-25 03:31N 51°15' E 004°22'0 0.0
2014-Mar-25 02:31N 51°15' E 004°22'0 0.0
2014-Mar-25 01:31N 51°15' E 004°22'0 0.0
2014-Mar-24 17:01N 51°15' E 004°22'  

Dump ship's entire track history

sailing weather and tide predictions

Motion Scan — PCNB — position and weather